sensor_id;sensor_type;location;lat;lon;timestamp;P1;durP1;ratioP1;P2;durP2;ratioP2
57307;SDS011;43152;50.968;18.214;2024-01-10T00:00:50;130.10;;;41.40;;
57307;SDS011;43152;50.968;18.214;2024-01-10T00:10:31;112.80;;;37.00;;
57307;SDS011;43152;50.968;18.214;2024-01-10T00:20:14;136.10;;;39.40;;
57307;SDS011;43152;50.968;18.214;2024-01-10T00:29:56;93.80;;;35.00;;
57307;SDS011;43152;50.968;18.214;2024-01-10T00:39:38;142.10;;;41.20;;
57307;SDS011;43152;50.968;18.214;2024-01-10T00:49:21;73.10;;;29.30;;
57307;SDS011;43152;50.968;18.214;2024-01-10T00:59:03;116.40;;;39.50;;
57307;SDS011;43152;50.968;18.214;2024-01-10T01:08:45;147.20;;;46.20;;
57307;SDS011;43152;50.968;18.214;2024-01-10T01:18:30;113.60;;;35.30;;
57307;SDS011;43152;50.968;18.214;2024-01-10T01:28:12;117.20;;;39.10;;
57307;SDS011;43152;50.968;18.214;2024-01-10T01:37:55;142.60;;;38.90;;
57307;SDS011;43152;50.968;18.214;2024-01-10T01:47:38;81.90;;;32.60;;
57307;SDS011;43152;50.968;18.214;2024-01-10T01:57:22;143.80;;;43.60;;
57307;SDS011;43152;50.968;18.214;2024-01-10T02:07:05;131.50;;;40.30;;
57307;SDS011;43152;50.968;18.214;2024-01-10T02:16:47;174.50;;;44.40;;
57307;SDS011;43152;50.968;18.214;2024-01-10T02:26:36;142.10;;;43.70;;
57307;SDS011;43152;50.968;18.214;2024-01-10T02:36:18;182.60;;;53.50;;
57307;SDS011;43152;50.968;18.214;2024-01-10T02:46:00;137.00;;;37.70;;
57307;SDS011;43152;50.968;18.214;2024-01-10T02:55:43;166.30;;;47.20;;
57307;SDS011;43152;50.968;18.214;2024-01-10T03:05:24;114.10;;;38.60;;
57307;SDS011;43152;50.968;18.214;2024-01-10T03:15:07;143.00;;;47.00;;
57307;SDS011;43152;50.968;18.214;2024-01-10T03:24:50;159.40;;;46.90;;
57307;SDS011;43152;50.968;18.214;2024-01-10T03:34:32;158.30;;;45.80;;
57307;SDS011;43152;50.968;18.214;2024-01-10T03:44:14;138.50;;;40.00;;
57307;SDS011;43152;50.968;18.214;2024-01-10T03:53:56;130.10;;;45.20;;
57307;SDS011;43152;50.968;18.214;2024-01-10T04:03:41;132.70;;;40.20;;
57307;SDS011;43152;50.968;18.214;2024-01-10T04:13:24;197.60;;;58.70;;
57307;SDS011;43152;50.968;18.214;2024-01-10T04:23:07;519.80;;;143.70;;
57307;SDS011;43152;50.968;18.214;2024-01-10T04:32:50;587.60;;;146.50;;
57307;SDS011;43152;50.968;18.214;2024-01-10T04:42:32;279.30;;;87.70;;
57307;SDS011;43152;50.968;18.214;2024-01-10T04:52:14;350.70;;;111.50;;
57307;SDS011;43152;50.968;18.214;2024-01-10T05:01:59;234.90;;;65.30;;
57307;SDS011;43152;50.968;18.214;2024-01-10T05:11:41;265.10;;;77.60;;
57307;SDS011;43152;50.968;18.214;2024-01-10T05:21:25;236.90;;;62.20;;
57307;SDS011;43152;50.968;18.214;2024-01-10T05:31:08;206.50;;;61.60;;
57307;SDS011;43152;50.968;18.214;2024-01-10T05:40:50;160.50;;;59.20;;
57307;SDS011;43152;50.968;18.214;2024-01-10T05:50:34;168.80;;;58.30;;
57307;SDS011;43152;50.968;18.214;2024-01-10T06:00:16;83.90;;;32.10;;
57307;SDS011;43152;50.968;18.214;2024-01-10T06:10:02;170.30;;;49.60;;
57307;SDS011;43152;50.968;18.214;2024-01-10T06:19:46;167.80;;;54.90;;
57307;SDS011;43152;50.968;18.214;2024-01-10T06:29:31;123.70;;;41.70;;
57307;SDS011;43152;50.968;18.214;2024-01-10T06:39:14;254.50;;;70.30;;
57307;SDS011;43152;50.968;18.214;2024-01-10T06:49:01;170.60;;;50.60;;
57307;SDS011;43152;50.968;18.214;2024-01-10T06:58:43;261.60;;;78.50;;
57307;SDS011;43152;50.968;18.214;2024-01-10T07:08:30;284.60;;;96.10;;
57307;SDS011;43152;50.968;18.214;2024-01-10T07:18:16;262.70;;;82.70;;
57307;SDS011;43152;50.968;18.214;2024-01-10T07:48:52;165.30;;;62.90;;
57307;SDS011;43152;50.968;18.214;2024-01-10T07:58:38;171.80;;;56.40;;
57307;SDS011;43152;50.968;18.214;2024-01-10T08:08:22;240.60;;;71.60;;
57307;SDS011;43152;50.968;18.214;2024-01-10T08:18:05;250.20;;;84.80;;
57307;SDS011;43152;50.968;18.214;2024-01-10T08:27:49;343.40;;;91.10;;
57307;SDS011;43152;50.968;18.214;2024-01-10T08:37:36;346.20;;;92.30;;
57307;SDS011;43152;50.968;18.214;2024-01-10T08:47:25;320.90;;;100.20;;
57307;SDS011;43152;50.968;18.214;2024-01-10T08:57:07;318.90;;;100.80;;
57307;SDS011;43152;50.968;18.214;2024-01-10T09:06:51;257.60;;;90.10;;
57307;SDS011;43152;50.968;18.214;2024-01-10T09:16:39;193.00;;;73.90;;
57307;SDS011;43152;50.968;18.214;2024-01-10T09:26:21;248.80;;;85.20;;
57307;SDS011;43152;50.968;18.214;2024-01-10T09:36:04;184.00;;;61.20;;
57307;SDS011;43152;50.968;18.214;2024-01-10T09:45:57;146.70;;;53.20;;
57307;SDS011;43152;50.968;18.214;2024-01-10T09:55:44;189.60;;;55.00;;
57307;SDS011;43152;50.968;18.214;2024-01-10T10:05:27;139.60;;;53.80;;
57307;SDS011;43152;50.968;18.214;2024-01-10T10:15:18;154.10;;;49.20;;
57307;SDS011;43152;50.968;18.214;2024-01-10T10:25:05;179.50;;;64.40;;
57307;SDS011;43152;50.968;18.214;2024-01-10T10:34:48;168.30;;;58.10;;
57307;SDS011;43152;50.968;18.214;2024-01-10T10:44:32;162.90;;;58.10;;
57307;SDS011;43152;50.968;18.214;2024-01-10T10:54:20;177.30;;;57.20;;
57307;SDS011;43152;50.968;18.214;2024-01-10T11:04:03;134.00;;;48.30;;
57307;SDS011;43152;50.968;18.214;2024-01-10T11:14:09;127.50;;;42.80;;
57307;SDS011;43152;50.968;18.214;2024-01-10T11:24:04;122.30;;;39.30;;
57307;SDS011;43152;50.968;18.214;2024-01-10T11:33:55;157.80;;;48.10;;
57307;SDS011;43152;50.968;18.214;2024-01-10T11:54:04;266.90;;;80.10;;
57307;SDS011;43152;50.968;18.214;2024-01-10T12:04:08;256.20;;;86.70;;
57307;SDS011;43152;50.968;18.214;2024-01-10T12:14:04;181.40;;;58.30;;
57307;SDS011;43152;50.968;18.214;2024-01-10T12:23:48;200.30;;;60.10;;
57307;SDS011;43152;50.968;18.214;2024-01-10T12:33:33;189.50;;;54.60;;
57307;SDS011;43152;50.968;18.214;2024-01-10T12:43:24;169.70;;;54.80;;
57307;SDS011;43152;50.968;18.214;2024-01-10T12:53:41;141.80;;;48.90;;
57307;SDS011;43152;50.968;18.214;2024-01-10T13:03:28;171.90;;;60.40;;
57307;SDS011;43152;50.968;18.214;2024-01-10T13:13:11;194.50;;;52.50;;
57307;SDS011;43152;50.968;18.214;2024-01-10T13:22:54;96.80;;;39.30;;
57307;SDS011;43152;50.968;18.214;2024-01-10T13:32:43;167.20;;;52.10;;
57307;SDS011;43152;50.968;18.214;2024-01-10T13:42:30;84.40;;;36.90;;
57307;SDS011;43152;50.968;18.214;2024-01-10T13:52:13;218.50;;;68.60;;
57307;SDS011;43152;50.968;18.214;2024-01-10T14:01:56;184.60;;;45.80;;
57307;SDS011;43152;50.968;18.214;2024-01-10T14:11:43;164.30;;;54.30;;
57307;SDS011;43152;50.968;18.214;2024-01-10T14:21:32;158.70;;;53.30;;
57307;SDS011;43152;50.968;18.214;2024-01-10T14:31:20;131.70;;;50.20;;
57307;SDS011;43152;50.968;18.214;2024-01-10T14:41:07;160.60;;;54.00;;
57307;SDS011;43152;50.968;18.214;2024-01-10T14:50:49;123.60;;;45.00;;
57307;SDS011;43152;50.968;18.214;2024-01-10T15:04:47;221.70;;;52.80;;
57307;SDS011;43152;50.968;18.214;2024-01-10T15:14:33;240.50;;;67.50;;
57307;SDS011;43152;50.968;18.214;2024-01-10T15:24:28;216.50;;;75.30;;
57307;SDS011;43152;50.968;18.214;2024-01-10T15:34:12;194.50;;;62.10;;
57307;SDS011;43152;50.968;18.214;2024-01-10T15:43:57;201.90;;;64.00;;
57307;SDS011;43152;50.968;18.214;2024-01-10T15:53:41;175.10;;;58.20;;
57307;SDS011;43152;50.968;18.214;2024-01-10T16:03:26;301.00;;;87.50;;
57307;SDS011;43152;50.968;18.214;2024-01-10T16:13:10;281.20;;;87.50;;
57307;SDS011;43152;50.968;18.214;2024-01-10T16:22:53;431.80;;;136.20;;
57307;SDS011;43152;50.968;18.214;2024-01-10T16:39:53;336.50;;;106.30;;
57307;SDS011;43152;50.968;18.214;2024-01-10T16:49:35;435.40;;;140.80;;
57307;SDS011;43152;50.968;18.214;2024-01-10T16:59:17;432.60;;;131.50;;
57307;SDS011;43152;50.968;18.214;2024-01-10T17:09:01;330.90;;;109.60;;
57307;SDS011;43152;50.968;18.214;2024-01-10T17:18:43;384.60;;;125.30;;
57307;SDS011;43152;50.968;18.214;2024-01-10T17:28:26;375.10;;;107.10;;
57307;SDS011;43152;50.968;18.214;2024-01-10T17:38:15;310.80;;;97.90;;
57307;SDS011;43152;50.968;18.214;2024-01-10T17:47:59;349.30;;;101.70;;
57307;SDS011;43152;50.968;18.214;2024-01-10T17:57:41;303.80;;;91.00;;
57307;SDS011;43152;50.968;18.214;2024-01-10T18:07:26;251.60;;;81.20;;
57307;SDS011;43152;50.968;18.214;2024-01-10T18:17:10;323.10;;;107.70;;
57307;SDS011;43152;50.968;18.214;2024-01-10T18:26:51;360.80;;;105.60;;
57307;SDS011;43152;50.968;18.214;2024-01-10T18:36:34;344.20;;;102.60;;
57307;SDS011;43152;50.968;18.214;2024-01-10T18:46:20;441.80;;;137.90;;
57307;SDS011;43152;50.968;18.214;2024-01-10T18:56:08;391.80;;;137.50;;
57307;SDS011;43152;50.968;18.214;2024-01-10T19:05:51;353.70;;;116.70;;
57307;SDS011;43152;50.968;18.214;2024-01-10T19:15:33;367.20;;;136.00;;
57307;SDS011;43152;50.968;18.214;2024-01-10T19:25:15;339.60;;;120.10;;
57307;SDS011;43152;50.968;18.214;2024-01-10T19:35:00;507.10;;;170.10;;
57307;SDS011;43152;50.968;18.214;2024-01-10T19:44:47;485.30;;;172.20;;
57307;SDS011;43152;50.968;18.214;2024-01-10T19:54:30;459.60;;;174.50;;
57307;SDS011;43152;50.968;18.214;2024-01-10T20:04:12;356.00;;;113.40;;
57307;SDS011;43152;50.968;18.214;2024-01-10T20:13:54;390.20;;;128.50;;
57307;SDS011;43152;50.968;18.214;2024-01-10T20:23:39;534.00;;;162.80;;
57307;SDS011;43152;50.968;18.214;2024-01-10T20:33:22;337.60;;;102.40;;
57307;SDS011;43152;50.968;18.214;2024-01-10T20:43:05;375.90;;;110.60;;
57307;SDS011;43152;50.968;18.214;2024-01-10T20:52:47;441.10;;;130.00;;
57307;SDS011;43152;50.968;18.214;2024-01-10T21:10:41;406.20;;;123.50;;
57307;SDS011;43152;50.968;18.214;2024-01-10T21:20:25;386.00;;;126.50;;
57307;SDS011;43152;50.968;18.214;2024-01-10T21:30:08;364.70;;;118.50;;
57307;SDS011;43152;50.968;18.214;2024-01-10T21:39:51;315.90;;;108.10;;
57307;SDS011;43152;50.968;18.214;2024-01-10T21:49:33;336.30;;;106.10;;
57307;SDS011;43152;50.968;18.214;2024-01-10T21:59:16;363.60;;;101.80;;
57307;SDS011;43152;50.968;18.214;2024-01-10T22:08:58;323.60;;;101.20;;
57307;SDS011;43152;50.968;18.214;2024-01-10T22:18:41;284.30;;;91.60;;
57307;SDS011;43152;50.968;18.214;2024-01-10T22:28:24;261.20;;;84.80;;
57307;SDS011;43152;50.968;18.214;2024-01-10T22:38:07;228.50;;;69.70;;
57307;SDS011;43152;50.968;18.214;2024-01-10T22:47:49;268.70;;;86.90;;
57307;SDS011;43152;50.968;18.214;2024-01-10T22:57:34;304.60;;;89.00;;
57307;SDS011;43152;50.968;18.214;2024-01-10T23:21:50;568.20;;;165.90;;
57307;SDS011;43152;50.968;18.214;2024-01-10T23:31:32;482.20;;;163.50;;
57307;SDS011;43152;50.968;18.214;2024-01-10T23:41:14;497.60;;;173.10;;
57307;SDS011;43152;50.968;18.214;2024-01-10T23:50:56;332.30;;;105.40;;
